createdAt,value
2023-05-11T00:04:56.167Z,12.87
2023-05-11T00:09:57.939Z,12.80
2023-05-11T00:15:00.002Z,12.77
2023-05-11T00:20:02.082Z,12.80
2023-05-11T00:25:04.486Z,12.74
2023-05-11T00:30:07.027Z,12.75
2023-05-11T00:35:12.450Z,12.69
2023-05-11T00:40:15.492Z,12.64
2023-05-11T00:45:18.305Z,12.62
2023-05-11T00:50:20.937Z,12.63
2023-05-11T00:55:23.057Z,12.57
2023-05-11T01:00:24.901Z,12.46
2023-05-11T01:05:40.682Z,12.42
2023-05-11T01:10:49.138Z,12.43
2023-05-11T01:15:52.968Z,12.42
2023-05-11T01:21:01.648Z,12.32
2023-05-11T01:26:16.507Z,12.24
2023-05-11T01:31:20.347Z,12.11
2023-05-11T01:36:28.359Z,12.01
2023-05-11T01:41:33.684Z,11.94
2023-05-11T01:46:36.061Z,11.87
2023-05-11T01:51:39.537Z,11.89
2023-05-11T01:56:44.258Z,11.89
2023-05-11T02:01:46.475Z,11.94
2023-05-11T02:06:49.396Z,11.93
2023-05-11T02:11:53.924Z,11.93
2023-05-11T02:16:57.261Z,12.06
2023-05-11T02:22:00.595Z,12.00
2023-05-11T02:27:02.808Z,11.94
2023-05-11T02:32:09.235Z,11.92
2023-05-11T02:37:20.827Z,11.89
2023-05-11T02:42:24.917Z,11.85
2023-05-11T02:47:32.321Z,11.84
2023-05-11T02:52:35.988Z,11.83
2023-05-11T02:57:39.087Z,11.81
2023-05-11T03:02:43.720Z,11.84
2023-05-11T03:07:45.836Z,11.81
2023-05-11T03:12:47.711Z,11.85
2023-05-11T03:17:52.229Z,11.84
2023-05-11T03:22:56.614Z,11.79
2023-05-11T03:27:59.201Z,11.75
2023-05-11T03:33:02.380Z,11.76
2023-05-11T03:38:05.738Z,11.77
2023-05-11T03:43:10.897Z,11.74
2023-05-11T03:48:16.208Z,11.76
2023-05-11T03:53:18.425Z,11.77
2023-05-11T03:58:20.431Z,11.78
2023-05-11T04:03:23.394Z,11.76
2023-05-11T04:08:25.516Z,11.80
2023-05-11T04:13:27.401Z,11.86
2023-05-11T04:18:29.460Z,11.85
2023-05-11T04:23:31.484Z,11.90
2023-05-11T04:28:34.249Z,11.84
2023-05-11T04:33:36.150Z,11.83
2023-05-11T04:38:39.221Z,11.86
2023-05-11T04:43:41.847Z,11.93
2023-05-11T04:48:45.274Z,11.85
2023-05-11T04:53:47.574Z,11.87
2023-05-11T04:58:49.480Z,11.84
2023-05-11T05:03:51.839Z,11.83
2023-05-11T05:08:53.563Z,11.88
2023-05-11T05:13:55.578Z,11.90
2023-05-11T05:18:57.654Z,11.91
2023-05-11T05:23:59.942Z,11.94
2023-05-11T05:29:02.189Z,12.02
2023-05-11T05:34:04.866Z,12.03
2023-05-11T05:39:11.916Z,12.06
2023-05-11T05:44:14.539Z,12.07
2023-05-11T05:49:17.629Z,12.06
2023-05-11T05:54:19.707Z,12.11
2023-05-11T05:59:24.172Z,12.10
2023-05-11T06:04:30.319Z,12.17
2023-05-11T06:09:32.302Z,12.14
2023-05-11T06:14:34.179Z,12.20
2023-05-11T06:19:37.497Z,12.19
2023-05-11T06:24:39.868Z,12.22
2023-05-11T06:29:42.308Z,12.25
2023-05-11T06:34:45.375Z,12.31
2023-05-11T06:39:48.702Z,12.31
2023-05-11T06:44:50.617Z,12.28
2023-05-11T06:49:52.577Z,12.34
2023-05-11T06:54:54.370Z,12.31
2023-05-11T06:59:56.937Z,12.30
2023-05-11T07:04:58.928Z,12.35
2023-05-11T07:10:00.997Z,12.36
2023-05-11T07:15:02.980Z,12.42
2023-05-11T07:20:05.021Z,12.42
2023-05-11T07:25:09.617Z,12.43
2023-05-11T07:30:11.882Z,12.43
2023-05-11T07:35:15.112Z,12.45
2023-05-11T07:40:17.249Z,12.48
2023-05-11T07:45:19.557Z,12.57
2023-05-11T07:50:23.889Z,12.60
2023-05-11T07:55:27.028Z,12.67
2023-05-11T08:00:28.806Z,12.67
2023-05-11T08:05:33.173Z,12.56
2023-05-11T08:10:35.886Z,12.53
2023-05-11T08:15:37.888Z,12.57
2023-05-11T08:20:42.151Z,12.57
2023-05-11T08:25:55.467Z,12.58
2023-05-11T08:30:58.254Z,12.59
2023-05-11T08:36:00.269Z,12.58
2023-05-11T08:41:03.145Z,12.64
2023-05-11T08:46:09.718Z,12.62
2023-05-11T08:51:12.100Z,12.65
2023-05-11T08:56:15.608Z,12.66
2023-05-11T09:01:19.199Z,12.63
2023-05-11T09:06:23.212Z,12.66
2023-05-11T09:11:25.329Z,12.74
2023-05-11T09:16:36.701Z,12.73
2023-05-11T09:21:39.472Z,12.69
2023-05-11T09:26:41.362Z,12.68
2023-05-11T09:31:45.240Z,12.66
2023-05-11T09:36:52.370Z,12.74
2023-05-11T09:42:23.536Z,12.76
2023-05-11T09:47:25.356Z,12.64
2023-05-11T09:52:27.061Z,12.56
2023-05-11T09:57:31.287Z,12.54
2023-05-11T10:02:34.334Z,12.49
2023-05-11T10:07:36.486Z,12.45
2023-05-11T10:12:40.236Z,12.46
2023-05-11T10:17:44.628Z,12.63
2023-05-11T10:22:47.525Z,12.73
2023-05-11T10:27:50.870Z,12.87
2023-05-11T10:32:55.194Z,12.92
2023-05-11T10:37:58.390Z,13.05
2023-05-11T10:43:52.357Z,13.08
2023-05-11T10:48:54.051Z,12.94
2023-05-11T10:54:28.080Z,12.93
2023-05-11T10:59:48.002Z,13.04
2023-05-11T11:04:52.089Z,13.00
2023-05-11T11:10:00.510Z,12.94
2023-05-11T11:15:07.536Z,12.86
2023-05-11T11:20:30.358Z,12.85
2023-05-11T11:25:53.253Z,12.90
2023-05-11T11:31:26.852Z,12.99
2023-05-11T11:37:01.040Z,12.95
2023-05-11T11:42:07.128Z,12.89
2023-05-11T11:47:20.793Z,12.86
2023-05-11T11:52:28.710Z,12.92
2023-05-11T11:57:33.167Z,12.99
2023-05-11T12:02:35.365Z,13.02
2023-05-11T12:07:43.350Z,12.90
2023-05-11T12:12:46.438Z,12.81
2023-05-11T12:17:48.148Z,12.77
2023-05-11T12:22:50.739Z,12.67
2023-05-11T12:28:03.481Z,12.69
2023-05-11T12:33:07.884Z,12.71
2023-05-11T12:38:11.010Z,12.75
2023-05-11T12:43:17.202Z,12.78
2023-05-11T12:48:19.570Z,12.75
2023-05-11T12:53:22.178Z,12.80
2023-05-11T12:58:24.028Z,12.83
2023-05-11T13:03:31.169Z,12.90
2023-05-11T13:08:33.124Z,12.91
2023-05-11T13:13:35.419Z,12.91
2023-05-11T13:18:37.242Z,12.90
2023-05-11T13:23:39.221Z,12.91
2023-05-11T13:28:41.228Z,12.92
2023-05-11T13:33:42.978Z,12.80
2023-05-11T13:38:45.595Z,12.78
2023-05-11T13:43:48.689Z,12.72
2023-05-11T13:48:50.364Z,12.73
2023-05-11T13:53:52.050Z,12.79
2023-05-11T13:58:53.747Z,12.74
2023-05-11T14:03:56.595Z,12.75
2023-05-11T14:08:58.341Z,12.74
2023-05-11T14:14:00.771Z,12.76
2023-05-11T14:19:02.590Z,12.82
2023-05-11T14:24:12.220Z,12.87
2023-05-11T14:29:14.797Z,12.96
2023-05-11T14:34:16.977Z,12.90
2023-05-11T14:39:18.698Z,12.87
2023-05-11T14:44:23.621Z,12.90
2023-05-11T14:49:25.407Z,12.87
2023-05-11T14:54:27.107Z,12.88
2023-05-11T14:59:28.788Z,12.90
2023-05-11T15:04:30.739Z,12.96
2023-05-11T15:09:32.485Z,12.93
2023-05-11T15:14:34.157Z,12.96
2023-05-11T15:19:36.036Z,12.95
2023-05-11T15:24:38.472Z,13.01
2023-05-11T15:29:40.785Z,13.01
2023-05-11T15:34:57.812Z,12.97
2023-05-11T15:40:00.727Z,12.97
2023-05-11T15:45:02.890Z,12.96
2023-05-11T15:50:04.976Z,13.05
2023-05-11T15:55:07.656Z,13.14
2023-05-11T16:00:10.543Z,13.16
2023-05-11T16:05:12.337Z,13.14
2023-05-11T16:10:14.062Z,13.40
2023-05-11T16:15:27.829Z,13.39
2023-05-11T16:20:30.774Z,13.33
2023-05-11T16:25:32.496Z,13.35
2023-05-11T16:30:34.244Z,13.33
2023-05-11T16:35:36.093Z,13.30
2023-05-11T16:40:37.859Z,13.27
2023-05-11T16:45:39.914Z,13.23
2023-05-11T16:50:42.290Z,13.23
2023-05-11T16:55:44.015Z,13.24
2023-05-11T17:00:46.110Z,13.31
2023-05-11T17:05:48.654Z,13.31
2023-05-11T17:10:50.543Z,13.28
2023-05-11T17:15:56.053Z,13.24
2023-05-11T17:20:58.131Z,13.24
2023-05-11T17:25:59.894Z,13.25
2023-05-11T17:31:09.291Z,13.20
2023-05-11T17:36:12.612Z,13.14
2023-05-11T17:41:15.242Z,13.09
2023-05-11T17:46:17.113Z,12.92
2023-05-11T17:51:20.258Z,12.79
2023-05-11T17:56:22.281Z,12.63
2023-05-11T18:01:24.043Z,12.64
2023-05-11T18:06:25.973Z,12.55
2023-05-11T18:11:27.734Z,12.51
2023-05-11T18:16:29.720Z,12.57
2023-05-11T18:21:31.990Z,12.56
2023-05-11T18:26:33.740Z,12.56
2023-05-11T18:31:35.566Z,12.59
2023-05-11T18:36:37.599Z,12.65
2023-05-11T18:41:39.260Z,12.62
2023-05-11T18:46:41.727Z,12.65
2023-05-11T18:51:43.586Z,12.60
2023-05-11T18:56:45.281Z,12.56
2023-05-11T19:01:48.353Z,12.60
2023-05-11T19:06:50.469Z,12.66
2023-05-11T19:11:52.130Z,12.58
2023-05-11T19:16:53.954Z,12.46
2023-05-11T19:21:55.881Z,12.41
2023-05-11T19:27:06.594Z,12.36
2023-05-11T19:32:09.380Z,12.36
2023-05-11T19:37:11.711Z,12.33
2023-05-11T19:42:13.405Z,12.32
2023-05-11T19:47:15.693Z,12.32
2023-05-11T19:52:17.397Z,12.27
2023-05-11T19:57:19.760Z,12.40
2023-05-11T20:02:21.507Z,12.45
2023-05-11T20:07:23.820Z,12.53
2023-05-11T20:12:25.636Z,12.61
2023-05-11T20:17:27.299Z,12.54
2023-05-11T20:22:31.406Z,12.60
2023-05-11T20:27:33.690Z,12.63
2023-05-11T20:32:37.400Z,12.54
2023-05-11T20:37:39.746Z,12.51
2023-05-11T20:42:41.516Z,12.60
2023-05-11T20:47:43.274Z,12.69
2023-05-11T20:52:45.572Z,12.67
2023-05-11T20:57:47.252Z,12.68
2023-05-11T21:02:49.350Z,12.70
2023-05-11T21:07:51.322Z,12.72
2023-05-11T21:12:53.532Z,12.68
2023-05-11T21:17:55.479Z,12.71
2023-05-11T21:22:58.076Z,12.73
2023-05-11T21:28:00.928Z,12.59
2023-05-11T21:33:02.887Z,12.61
2023-05-11T21:38:04.653Z,12.64
2023-05-11T21:43:08.119Z,12.70
2023-05-11T21:48:11.252Z,12.73
2023-05-11T21:53:12.902Z,12.75
2023-05-11T21:58:14.818Z,12.73
2023-05-11T22:03:16.853Z,12.68
2023-05-11T22:08:18.573Z,12.56
2023-05-11T22:13:20.934Z,12.45
2023-05-11T22:18:22.682Z,12.42
2023-05-11T22:23:24.637Z,12.36
2023-05-11T22:28:26.420Z,12.36
2023-05-11T22:33:28.055Z,12.33
2023-05-11T22:38:30.321Z,12.32
2023-05-11T22:43:32.084Z,12.31
2023-05-11T22:48:33.818Z,12.31
2023-05-11T22:53:35.635Z,12.28
2023-05-11T22:58:37.701Z,12.24
2023-05-11T23:03:40.101Z,12.21
2023-05-11T23:08:41.881Z,12.20
2023-05-11T23:13:43.702Z,12.21
2023-05-11T23:18:46.343Z,12.23
2023-05-11T23:23:48.202Z,12.22
2023-05-11T23:28:50.037Z,12.18
2023-05-11T23:33:51.915Z,12.18
2023-05-11T23:38:54.349Z,12.16
2023-05-11T23:43:56.386Z,12.15
2023-05-11T23:48:58.438Z,12.10
2023-05-11T23:54:00.404Z,12.10
2023-05-11T23:59:02.392Z,12.11
